Time;durP1;ratioP1;P1;durP2;ratioP2;P2;SDS_P1;SDS_P2;PMS_P1;PMS_P2;Temp;Humidity;BMP_temperature;BMP_pressure;BME280_temperature;BME280_humidity;BME280_pressure;Samples;Min_cycle;Max_cycle;Signal;HPM_P1;HPM_P2
2022/10/25 00:01:43;;;;;;;2.22;0.80;;;;;;;9.69;100.00;99338.28;5011368;28;20049;-95
2022/10/25 00:04:20;;;;;;;4.45;1.05;;;;;;;9.65;100.00;99337.78;4976412;28;20039;-94
2022/10/25 00:06:53;;;;;;;5.88;1.20;;;;;;;9.65;100.00;99345.69;4995215;28;20073;-95
2022/10/25 00:09:32;;;;;;;10.73;1.08;;;;;;;9.66;100.00;99346.53;4998312;28;20034;-93
2022/10/25 00:12:08;;;;;;;4.35;1.15;;;;;;;9.62;100.00;99351.31;4982518;28;20035;-92
2022/10/25 00:15:07;;;;;;;6.38;0.98;;;;;;;9.56;100.00;99354.63;4965555;28;20030;-94
2022/10/25 00:17:41;;;;;;;6.50;1.00;;;;;;;9.52;100.00;99351.47;4990732;28;20129;-94
2022/10/25 00:20:17;;;;;;;6.75;0.95;;;;;;;9.51;100.00;99357.75;4999307;28;20031;-93
2022/10/25 00:22:50;;;;;;;6.45;1.08;;;;;;;9.45;100.00;99353.13;5008546;28;20040;-94
2022/10/25 00:25:20;;;;;;;4.32;1.23;;;;;;;9.45;100.00;99361.03;4960987;28;20121;-95
2022/10/25 00:27:49;;;;;;;3.20;1.13;;;;;;;9.42;100.00;99364.00;5005279;28;20048;-94
2022/10/25 00:30:17;;;;;;;9.88;1.00;;;;;;;9.34;100.00;99362.19;4970095;28;20034;-94
2022/10/25 00:32:51;;;;;;;3.63;0.98;;;;;;;9.37;100.00;99363.66;4989186;28;20505;-94
2022/10/25 00:35:19;;;;;;;4.70;1.42;;;;;;;9.33;100.00;99362.34;4993003;28;20494;-94
2022/10/25 00:37:50;;;;;;;4.25;1.15;;;;;;;9.34;100.00;99356.09;4994998;28;20478;-93
2022/10/25 00:40:19;;;;;;;3.97;0.80;;;;;;;9.31;100.00;99357.25;5012617;28;20057;-95
2022/10/25 00:42:48;;;;;;;7.20;1.05;;;;;;;9.28;100.00;99354.94;5024794;28;20058;-92
2022/10/25 00:49:18;;;;;;;3.85;0.77;;;;;;;9.25;100.00;99356.06;4982194;28;20046;-93
2022/10/25 00:52:19;;;;;;;2.40;0.70;;;;;;;9.24;100.00;99357.06;5008438;28;20026;-93
2022/10/25 00:55:02;;;;;;;5.22;0.85;;;;;;;9.28;100.00;99368.13;4993531;28;20042;-93
2022/10/25 00:57:56;;;;;;;7.18;1.40;;;;;;;9.32;100.00;99369.44;5000585;28;20129;-93
2022/10/25 01:00:26;;;;;;;3.90;0.93;;;;;;;9.34;100.00;99375.38;5030689;28;20034;-92
2022/10/25 01:02:56;;;;;;;7.68;1.40;;;;;;;9.36;100.00;99372.56;5006634;28;20595;-93
2022/10/25 01:05:27;;;;;;;5.30;1.35;;;;;;;9.37;100.00;99371.56;5000219;28;20066;-94
2022/10/25 01:07:57;;;;;;;8.73;1.23;;;;;;;9.37;100.00;99372.41;4978096;28;20034;-94
2022/10/25 01:10:27;;;;;;;5.82;1.30;;;;;;;9.35;100.00;99366.47;5025354;28;20489;-93
2022/10/25 01:12:55;;;;;;;4.20;0.75;;;;;;;9.35;100.00;99369.09;4986234;28;20048;-93
2022/10/25 01:15:31;;;;;;;5.47;0.98;;;;;;;9.35;100.00;99366.47;5006384;28;20494;-93
2022/10/25 01:18:28;;;;;;;5.07;0.70;;;;;;;9.36;100.00;99362.84;5009505;28;20125;-93
2022/10/25 01:21:31;;;;;;;5.07;0.82;;;;;;;9.38;100.00;99371.41;4992853;28;20058;-93
2022/10/25 01:24:04;;;;;;;6.35;0.70;;;;;;;9.33;100.00;99370.25;4982293;28;20045;-93
2022/10/25 01:26:54;;;;;;;4.25;1.10;;;;;;;9.27;100.00;99371.75;5018916;28;20054;-93
2022/10/25 01:30:00;;;;;;;4.75;0.93;;;;;;;9.19;100.00;99369.91;4992574;28;20049;-93
2022/10/25 01:32:39;;;;;;;5.65;0.77;;;;;;;9.11;100.00;99365.44;5020983;28;20184;-94
2022/10/25 01:35:27;;;;;;;7.13;0.93;;;;;;;9.07;100.00;99377.31;4998816;28;20030;-93
2022/10/25 01:38:00;;;;;;;7.80;0.82;;;;;;;9.07;100.00;99374.66;4994550;28;20087;-94
2022/10/25 01:40:47;;;;;;;4.20;0.73;;;;;;;9.01;100.00;99372.66;4999832;28;20106;-93
2022/10/25 01:43:31;;;;;;;7.53;0.95;;;;;;;9.00;100.00;99374.47;5010372;28;20041;-94
2022/10/25 01:46:25;;;;;;;8.65;1.13;;;;;;;9.00;100.00;99371.03;5037155;28;20054;-94
2022/10/25 01:49:08;;;;;;;6.53;0.60;;;;;;;8.92;100.00;99372.66;5001573;28;20425;-94
2022/10/25 01:51:37;;;;;;;4.63;0.82;;;;;;;8.92;100.00;99379.72;5012951;28;20033;-93
2022/10/25 01:54:22;;;;;;;4.28;1.00;;;;;;;9.01;100.00;99370.88;5008796;28;20127;-93
2022/10/25 01:57:08;;;;;;;9.57;0.90;;;;;;;9.06;100.00;99368.56;5000134;28;20041;-94
2022/10/25 02:00:06;;;;;;;4.63;0.90;;;;;;;9.06;100.00;99367.75;5012520;28;20493;-94
2022/10/25 02:03:07;;;;;;;6.93;1.20;;;;;;;9.02;100.00;99361.97;5061916;28;20103;-94
2022/10/25 02:05:47;;;;;;;12.15;1.13;;;;;;;9.11;100.00;99362.00;5029005;28;20033;-94
2022/10/25 02:08:32;;;;;;;9.40;0.93;;;;;;;9.14;100.00;99364.31;5032423;28;20041;-94
2022/10/25 02:11:08;;;;;;;9.77;0.98;;;;;;;9.17;100.00;99361.34;5006911;28;20118;-93
2022/10/25 02:14:00;;;;;;;5.43;0.85;;;;;;;9.20;100.00;99350.47;5032039;28;20126;-94
2022/10/25 02:16:51;;;;;;;5.43;1.00;;;;;;;9.20;100.00;99352.28;5002613;28;20091;-93
2022/10/25 02:19:29;;;;;;;9.43;0.88;;;;;;;9.23;100.00;99351.94;5022804;28;20446;-94
2022/10/25 02:22:01;;;;;;;3.67;0.57;;;;;;;9.25;100.00;99350.78;5031132;28;20030;-93
2022/10/25 02:24:32;;;;;;;5.43;0.85;;;;;;;9.26;100.00;99355.09;5013686;28;20029;-94
2022/10/25 02:27:03;;;;;;;8.45;0.75;;;;;;;9.24;100.00;99358.88;5015806;28;20037;-93
2022/10/25 02:29:34;;;;;;;7.28;0.75;;;;;;;9.19;100.00;99356.72;5032429;28;20045;-94
2022/10/25 02:32:05;;;;;;;2.60;0.85;;;;;;;9.14;100.00;99345.84;5022773;28;20046;-93
2022/10/25 02:34:35;;;;;;;3.30;0.77;;;;;;;9.08;100.00;99355.22;5012845;28;20030;-93
2022/10/25 02:37:05;;;;;;;6.40;1.58;;;;;;;9.01;100.00;99348.94;5025378;28;20042;-94
2022/10/25 02:39:35;;;;;;;11.45;1.00;;;;;;;9.02;100.00;99350.59;5026135;28;20503;-94
2022/10/25 02:42:05;;;;;;;4.15;0.73;;;;;;;9.01;100.00;99341.88;4989345;28;20034;-93
2022/10/25 02:44:33;;;;;;;5.05;0.93;;;;;;;9.03;100.00;99342.53;4980481;28;20478;-93
2022/10/25 02:47:01;;;;;;;5.03;1.00;;;;;;;9.05;100.00;99337.94;5005686;28;20061;-93
2022/10/25 02:49:30;;;;;;;4.70;1.52;;;;;;;9.13;100.00;99350.28;4981833;28;20077;-94
2022/10/25 02:51:59;;;;;;;6.13;1.10;;;;;;;9.16;100.00;99346.50;5016319;28;20029;-93
2022/10/25 02:54:28;;;;;;;5.13;0.90;;;;;;;9.17;100.00;99333.16;4982357;28;20053;-94
2022/10/25 02:56:56;;;;;;;3.38;0.63;;;;;;;9.18;100.00;99324.28;5003493;28;20038;-93
2022/10/25 02:59:24;;;;;;;7.20;1.08;;;;;;;9.20;100.00;99331.19;5004876;28;20042;-93
2022/10/25 03:01:52;;;;;;;11.77;1.05;;;;;;;9.17;100.00;99327.88;5004588;28;20045;-93
2022/10/25 03:04:22;;;;;;;4.95;0.88;;;;;;;9.16;100.00;99323.59;4998083;28;20055;-94
2022/10/25 03:06:50;;;;;;;4.53;0.73;;;;;;;9.16;100.00;99320.13;4992994;28;20037;-93
2022/10/25 03:09:18;;;;;;;11.68;1.58;;;;;;;9.15;100.00;99316.69;4958411;28;20069;-94
2022/10/25 03:11:46;;;;;;;4.18;0.80;;;;;;;9.13;100.00;99321.28;5025318;28;20382;-92
2022/10/25 03:14:15;;;;;;;5.60;0.80;;;;;;;9.08;100.00;99322.78;4979698;28;20042;-93
2022/10/25 03:16:43;;;;;;;7.38;1.25;;;;;;;9.06;100.00;99323.75;4997260;28;20042;-93
2022/10/25 03:19:13;;;;;;;5.15;0.80;;;;;;;9.03;100.00;99326.72;5022954;28;20433;-93
2022/10/25 03:21:41;;;;;;;5.35;0.90;;;;;;;9.05;100.00;99329.19;4997357;28;20029;-93
2022/10/25 03:24:10;;;;;;;6.57;0.70;;;;;;;9.04;100.00;99325.75;4970729;28;20030;-94
2022/10/25 03:26:37;;;;;;;6.28;0.90;;;;;;;9.06;100.00;99312.41;4976890;28;20038;-93
2022/10/25 03:29:06;;;;;;;8.82;1.00;;;;;;;9.08;100.00;99306.97;5008012;28;20394;-94
2022/10/25 03:31:35;;;;;;;8.95;1.00;;;;;;;9.08;100.00;99299.06;5007307;28;20121;-94
2022/10/25 03:34:06;;;;;;;3.85;0.82;;;;;;;9.15;100.00;99315.84;4976518;28;20507;-94
2022/10/25 03:36:34;;;;;;;8.02;0.95;;;;;;;9.09;100.00;99321.78;4995745;28;20034;-94
2022/10/25 03:39:03;;;;;;;7.22;1.35;;;;;;;9.09;100.00;99304.16;4994253;28;20030;-94
2022/10/25 03:41:31;;;;;;;4.65;0.90;;;;;;;9.09;100.00;99301.53;4996775;28;20569;-94
2022/10/25 03:44:00;;;;;;;6.55;1.00;;;;;;;9.09;100.00;99300.69;4999428;28;20034;-93
2022/10/25 03:46:28;;;;;;;10.07;0.95;;;;;;;9.08;100.00;99302.50;4985418;28;20050;-95
2022/10/25 03:48:57;;;;;;;12.45;1.27;;;;;;;9.11;100.00;99309.28;5008505;28;20043;-93
2022/10/25 03:51:25;;;;;;;8.80;1.40;;;;;;;9.11;100.00;99301.38;4989182;28;20030;-94
2022/10/25 03:53:54;;;;;;;4.80;1.13;;;;;;;9.11;100.00;99299.53;5010101;28;20110;-94
2022/10/25 03:56:22;;;;;;;8.35;0.88;;;;;;;9.12;100.00;99303.00;5033935;28;20172;-94
2022/10/25 03:58:52;;;;;;;6.47;1.45;;;;;;;9.12;100.00;99293.28;4994735;28;20562;-93
2022/10/25 04:01:20;;;;;;;9.10;1.27;;;;;;;9.11;100.00;99296.91;5006291;28;20037;-95
2022/10/25 04:03:52;;;;;;;9.45;1.20;;;;;;;9.14;100.00;99296.56;4983861;28;20031;-93
2022/10/25 04:06:20;;;;;;;6.88;0.90;;;;;;;9.15;100.00;99295.59;5002546;28;20041;-94
2022/10/25 04:08:52;;;;;;;7.05;1.20;;;;;;;9.17;100.00;99293.59;4986220;28;20078;-94
2022/10/25 04:11:23;;;;;;;14.80;1.20;;;;;;;9.17;100.00;99304.16;4993028;28;20042;-93
2022/10/25 04:14:01;;;;;;;8.15;1.08;;;;;;;9.23;100.00;99296.59;4997299;28;20209;-94
2022/10/25 04:16:38;;;;;;;9.38;1.30;;;;;;;9.26;100.00;99301.53;5026319;28;20030;-93
2022/10/25 04:19:10;;;;;;;12.43;1.45;;;;;;;9.27;100.00;99306.63;5009410;28;21037;-93
2022/10/25 04:22:01;;;;;;;8.73;0.82;;;;;;;9.27;100.00;99305.84;5037837;28;20034;-92
2022/10/25 04:24:36;;;;;;;13.55;1.52;;;;;;;9.28;100.00;99315.38;4970500;28;20042;-94
2022/10/25 04:27:06;;;;;;;5.20;1.15;;;;;;;9.25;100.00;99311.25;5013708;28;20044;-94
2022/10/25 04:29:47;;;;;;;7.80;1.05;;;;;;;9.27;100.00;99319.00;4992090;28;20040;-94
2022/10/25 04:32:15;;;;;;;10.23;1.63;;;;;;;9.28;100.00;99312.75;4995731;28;20030;-95
2022/10/25 04:34:43;;;;;;;14.52;1.27;;;;;;;9.28;100.00;99305.66;4986794;28;20065;-96
2022/10/25 04:37:20;;;;;;;11.40;0.98;;;;;;;9.27;100.00;99306.63;4995960;28;20042;-94
2022/10/25 04:39:50;;;;;;;4.38;0.88;;;;;;;9.30;100.00;99306.31;4980721;28;20038;-95
2022/10/25 04:42:20;;;;;;;9.63;1.23;;;;;;;9.32;100.00;99303.50;4996090;28;20046;-94
2022/10/25 04:44:50;;;;;;;6.10;0.90;;;;;;;9.36;100.00;99298.72;5041663;28;20025;-94
2022/10/25 04:47:20;;;;;;;4.47;0.85;;;;;;;9.38;100.00;99296.75;5030175;28;20038;-94
2022/10/25 04:49:50;;;;;;;4.93;0.80;;;;;;;9.39;100.00;99293.13;5008853;28;20069;-94
2022/10/25 04:52:20;;;;;;;4.80;0.82;;;;;;;9.36;100.00;99288.19;5013574;28;20056;-94
2022/10/25 04:54:50;;;;;;;6.57;1.23;;;;;;;9.37;100.00;99295.94;4974630;28;20065;-93
2022/10/25 04:57:23;;;;;;;5.65;1.35;;;;;;;9.37;100.00;99300.38;5007408;28;20042;-93
2022/10/25 04:59:52;;;;;;;15.38;1.45;;;;;;;9.37;100.00;99298.56;4995188;28;20069;-93
2022/10/25 05:02:20;;;;;;;9.95;0.80;;;;;;;9.38;100.00;99302.84;5032417;28;20042;-94
2022/10/25 05:04:49;;;;;;;13.40;1.00;;;;;;;9.44;100.00;99309.28;5007827;28;20438;-93
2022/10/25 05:07:19;;;;;;;6.00;0.80;;;;;;;9.46;100.00;99304.66;5005083;28;20103;-94
2022/10/25 05:09:50;;;;;;;3.33;0.70;;;;;;;9.47;100.00;99308.13;4992057;28;20036;-94
2022/10/25 05:12:22;;;;;;;6.32;0.93;;;;;;;9.45;100.00;99305.66;4983749;28;20128;-94
2022/10/25 05:14:51;;;;;;;3.30;0.50;;;;;;;9.48;100.00;99307.97;5026336;28;20034;-94
2022/10/25 05:17:19;;;;;;;11.02;0.93;;;;;;;9.43;100.00;99310.25;4996601;28;20528;-94
2022/10/25 05:19:48;;;;;;;12.50;1.33;;;;;;;9.43;100.00;99312.91;5010971;28;20161;-95
2022/10/25 05:22:16;;;;;;;10.02;1.00;;;;;;;9.38;100.00;99302.03;5010540;28;20184;-95
2022/10/25 05:24:44;;;;;;;7.60;0.80;;;;;;;9.35;100.00;99297.09;4987804;28;20042;-94
2022/10/25 05:27:12;;;;;;;5.47;0.95;;;;;;;9.33;100.00;99291.16;5033290;28;20069;-94
2022/10/25 05:29:41;;;;;;;7.15;1.40;;;;;;;9.36;100.00;99296.09;4997819;28;20046;-96
2022/10/25 05:32:12;;;;;;;7.10;0.90;;;;;;;9.36;100.00;99298.72;4991199;28;20049;-95
2022/10/25 05:34:41;;;;;;;7.90;0.85;;;;;;;9.37;100.00;99295.94;4996336;28;20038;-94
2022/10/25 05:37:08;;;;;;;7.90;0.90;;;;;;;9.37;100.00;99287.19;4977706;28;20062;-95
2022/10/25 05:39:38;;;;;;;9.80;1.08;;;;;;;9.41;100.00;99291.97;4971997;28;20126;-94
2022/10/25 05:42:08;;;;;;;10.30;0.93;;;;;;;9.45;100.00;99294.28;4979382;28;20140;-95
2022/10/25 05:44:41;;;;;;;7.80;1.08;;;;;;;9.47;100.00;99297.56;5014334;28;20030;-94
2022/10/25 05:47:11;;;;;;;8.48;1.00;;;;;;;9.48;100.00;99294.78;4976902;28;20038;-94
2022/10/25 05:49:41;;;;;;;8.70;1.60;;;;;;;9.46;100.00;99290.66;4977667;28;20035;-95
2022/10/25 05:52:11;;;;;;;6.13;1.02;;;;;;;9.48;100.00;99292.13;4973979;28;20106;-94
2022/10/25 05:54:39;;;;;;;9.90;1.13;;;;;;;9.53;100.00;99296.91;4993926;28;20038;-93
2022/10/25 05:57:07;;;;;;;9.63;1.35;;;;;;;9.53;100.00;99291.63;4985549;28;20038;-94
2022/10/25 05:59:35;;;;;;;11.68;1.20;;;;;;;9.56;100.00;99296.56;4973719;28;20062;-94
2022/10/25 06:02:01;;;;;;;13.38;1.33;;;;;;;9.58;100.00;99296.41;5022665;28;20494;-93
2022/10/25 06:04:29;;;;;;;17.13;1.40;;;;;;;9.63;100.00;99288.81;4994107;28;20039;-93
2022/10/25 06:06:57;;;;;;;11.88;1.70;;;;;;;9.66;100.00;99293.78;4962685;28;20034;-94
2022/10/25 06:09:26;;;;;;;10.38;1.92;;;;;;;9.66;100.00;99294.59;4974965;28;20475;-94
2022/10/25 06:11:55;;;;;;;8.40;1.13;;;;;;;9.68;100.00;99294.44;4974092;28;20113;-93
2022/10/25 06:14:23;;;;;;;12.45;1.33;;;;;;;9.68;100.00;99289.16;4945290;28;20042;-94
2022/10/25 06:16:51;;;;;;;7.40;1.10;;;;;;;9.67;100.00;99282.22;5028249;28;20034;-94
2022/10/25 06:19:19;;;;;;;11.48;1.08;;;;;;;9.68;100.00;99278.59;4976749;28;20049;-95
2022/10/25 06:21:47;;;;;;;12.38;1.00;;;;;;;9.67;100.00;99282.22;4967173;28;20062;-93
2022/10/25 06:24:16;;;;;;;13.60;1.10;;;;;;;9.72;100.00;99284.34;4988987;28;20042;-94
2022/10/25 06:26:44;;;;;;;8.40;1.45;;;;;;;9.70;100.00;99279.25;4944126;28;20584;-94
2022/10/25 06:29:13;;;;;;;5.75;0.90;;;;;;;9.75;100.00;99289.28;4981026;28;20034;-94
2022/10/25 06:31:42;;;;;;;8.73;1.27;;;;;;;9.78;100.00;99275.75;4966862;28;20050;-93
2022/10/25 06:34:12;;;;;;;11.30;0.93;;;;;;;9.83;100.00;99267.34;5033939;28;20037;-94
2022/10/25 06:36:45;;;;;;;12.70;1.15;;;;;;;9.89;100.00;99271.97;5001856;28;20470;-95
2022/10/25 06:39:15;;;;;;;10.27;1.30;;;;;;;9.91;100.00;99265.50;4996526;28;20057;-96
2022/10/25 06:41:43;;;;;;;16.08;1.38;;;;;;;9.94;100.00;99261.69;4985368;28;20053;-95
2022/10/25 06:44:11;;;;;;;19.13;1.15;;;;;;;9.98;100.00;99264.84;5000886;28;20037;-94
2022/10/25 06:46:41;;;;;;;15.18;1.30;;;;;;;10.01;100.00;99267.13;4990889;28;20041;-96
2022/10/25 06:49:11;;;;;;;11.25;1.45;;;;;;;10.06;100.00;99267.47;5005290;28;20039;-94
2022/10/25 06:51:41;;;;;;;14.68;2.38;;;;;;;10.07;100.00;99268.25;5001067;28;20042;-94
2022/10/25 06:54:14;;;;;;;12.63;1.50;;;;;;;10.17;100.00;99266.25;4998914;28;20038;-93
2022/10/25 06:56:44;;;;;;;15.05;1.20;;;;;;;10.19;100.00;99269.56;5006443;28;20038;-94
2022/10/25 06:59:14;;;;;;;30.20;3.78;;;;;;;10.24;100.00;99269.84;5000633;28;20076;-94
2022/10/25 07:01:43;;;;;;;8.40;1.30;;;;;;;10.26;100.00;99270.50;4998049;28;20041;-95
2022/10/25 07:04:10;;;;;;;15.25;1.70;;;;;;;10.30;100.00;99271.81;5007354;28;20720;-95
2022/10/25 07:06:39;;;;;;;16.75;1.35;;;;;;;10.37;100.00;99274.59;4978237;28;20068;-91
2022/10/25 07:09:09;;;;;;;15.05;2.55;;;;;;;10.39;100.00;99269.13;4983358;28;20080;-91
2022/10/25 07:11:39;;;;;;;22.30;2.30;;;;;;;10.37;100.00;99265.84;4978363;28;20034;-93
2022/10/25 07:14:09;;;;;;;20.65;2.83;;;;;;;10.41;100.00;99260.06;5011359;28;20029;-94
2022/10/25 07:16:38;;;;;;;19.08;1.73;;;;;;;10.42;100.00;99263.50;4998048;28;20033;-95
2022/10/25 07:19:06;;;;;;;14.40;1.33;;;;;;;10.48;100.00;99259.41;4991704;28;20040;-93
2022/10/25 07:21:34;;;;;;;9.27;1.25;;;;;;;10.50;100.00;99270.59;4993844;28;20034;-93
2022/10/25 07:24:04;;;;;;;9.18;1.50;;;;;;;10.54;100.00;99271.91;5029754;28;20050;-94
2022/10/25 07:26:35;;;;;;;12.10;1.25;;;;;;;10.56;100.00;99264.63;4990845;28;20081;-92
2022/10/25 07:29:05;;;;;;;11.15;1.00;;;;;;;10.59;100.00;99258.97;4984227;28;20097;-93
2022/10/25 07:31:38;;;;;;;14.07;1.27;;;;;;;10.62;100.00;99258.63;4999796;28;20050;-92
2022/10/25 07:34:10;;;;;;;15.30;1.58;;;;;;;10.67;100.00;99255.50;4990948;28;20410;-92
2022/10/25 07:36:38;;;;;;;11.93;0.82;;;;;;;10.66;100.00;99270.53;4994005;28;20664;-92
2022/10/25 07:39:08;;;;;;;10.70;1.15;;;;;;;10.72;100.00;99268.19;5025565;28;20466;-94
2022/10/25 07:41:38;;;;;;;18.65;1.58;;;;;;;10.74;100.00;99274.09;4984634;28;20085;-94
2022/10/25 07:44:07;;;;;;;11.25;0.95;;;;;;;10.77;100.00;99277.22;4992024;28;20104;-94
2022/10/25 07:46:35;;;;;;;11.35;0.98;;;;;;;10.80;100.00;99283.97;4990609;28;20030;-94
2022/10/25 07:49:04;;;;;;;15.35;1.30;;;;;;;10.83;100.00;99283.63;4976632;28;20045;-93
2022/10/25 07:51:32;;;;;;;11.60;1.35;;;;;;;10.84;100.00;99297.66;4992704;28;20042;-95
2022/10/25 07:54:01;;;;;;;9.98;1.25;;;;;;;10.85;100.00;99296.66;5028767;28;20411;-94
2022/10/25 07:56:29;;;;;;;10.65;1.20;;;;;;;10.87;100.00;99290.22;4984743;28;20041;-94
2022/10/25 08:02:36;;;;;;;12.38;1.65;;;;;;;10.94;100.00;99300.91;4994275;28;20029;-93
2022/10/25 08:05:04;;;;;;;8.70;1.23;;;;;;;10.98;100.00;99309.31;5024453;28;20029;-92
2022/10/25 08:07:32;;;;;;;9.63;0.98;;;;;;;11.00;100.00;99307.31;4993227;28;20536;-94
2022/10/25 08:10:03;;;;;;;8.05;1.65;;;;;;;11.07;100.00;99315.38;5008359;28;20536;-93
2022/10/25 08:12:32;;;;;;;14.43;1.58;;;;;;;11.11;100.00;99314.84;5010692;28;20687;-94
2022/10/25 08:15:00;;;;;;;16.23;1.30;;;;;;;11.16;100.00;99312.50;4996050;28;20129;-92
2022/10/25 08:17:29;;;;;;;16.50;1.42;;;;;;;11.19;100.00;99306.03;4995644;28;20038;-93
2022/10/25 08:19:57;;;;;;;14.07;1.50;;;;;;;11.26;100.00;99312.25;5007316;28;20042;-93
2022/10/25 08:22:25;;;;;;;10.90;1.40;;;;;;;11.29;100.00;99300.53;4987416;28;20065;-93
2022/10/25 08:24:56;;;;;;;16.92;1.45;;;;;;;11.36;100.00;99312.03;4981809;28;20049;-94
2022/10/25 08:27:26;;;;;;;11.63;1.02;;;;;;;11.40;100.00;99320.44;5010004;28;20030;-93
2022/10/25 08:29:53;;;;;;;13.23;1.30;;;;;;;11.43;100.00;99316.59;5014802;28;20033;-93
2022/10/25 08:32:23;;;;;;;16.35;1.90;;;;;;;11.48;100.00;99317.69;4993195;28;20046;-93
2022/10/25 08:34:52;;;;;;;12.45;1.38;;;;;;;11.58;100.00;99308.72;4979236;28;20528;-93
2022/10/25 08:37:19;;;;;;;12.88;1.33;;;;;;;11.61;100.00;99298.56;4966735;28;20042;-92
2022/10/25 08:39:48;;;;;;;11.70;1.45;;;;;;;11.67;100.00;99297.06;5002034;28;20084;-92
2022/10/25 08:42:36;;;;;;;13.95;1.08;;;;;;;11.70;100.00;99294.03;4977891;28;20022;-92
2022/10/25 08:45:48;;;;;;;10.07;1.15;;;;;;;11.77;100.00;99310.00;4998533;28;20042;-94
2022/10/25 08:48:21;;;;;;;9.50;1.17;;;;;;;11.86;100.00;99300.16;4984469;28;20061;-93
2022/10/25 08:50:57;;;;;;;7.43;0.80;;;;;;;11.86;100.00;99305.47;5010543;28;20073;-93
2022/10/25 08:53:55;;;;;;;11.07;1.08;;;;;;;11.90;100.00;99299.63;4982840;28;20054;-94
2022/10/25 08:56:26;;;;;;;13.07;1.33;;;;;;;11.87;100.00;99299.16;4973130;28;20082;-93
2022/10/25 08:59:00;;;;;;;10.63;1.23;;;;;;;11.89;100.00;99302.47;4980082;28;20289;-93
2022/10/25 09:01:44;;;;;;;9.60;1.08;;;;;;;11.93;100.00;99305.56;4960206;28;20544;-89
2022/10/25 09:04:14;;;;;;;14.05;1.65;;;;;;;11.99;100.00;99302.19;4981573;28;20479;-89
2022/10/25 09:07:33;;;;;;;7.32;1.13;;;;;;;12.08;100.00;99309.06;4964813;28;20525;-92
2022/10/25 09:10:27;;;;;;;20.48;1.50;;;;;;;12.18;100.00;99306.16;4947011;28;20097;-91
2022/10/25 09:13:04;;;;;;;16.30;1.13;;;;;;;12.23;100.00;99301.13;4952495;28;20091;-93
2022/10/25 09:15:52;;;;;;;13.15;1.35;;;;;;;12.34;100.00;99306.97;4960768;28;20046;-93
2022/10/25 09:18:31;;;;;;;8.57;1.55;;;;;;;12.41;100.00;99297.25;4977809;28;20490;-94
2022/10/25 09:21:08;;;;;;;17.17;1.42;;;;;;;12.48;100.00;99306.13;4994481;28;20039;-93
2022/10/25 09:23:43;;;;;;;13.80;1.30;;;;;;;12.48;100.00;99298.19;5005690;28;20062;-92
2022/10/25 09:26:23;;;;;;;7.78;1.52;;;;;;;12.55;100.00;99302.75;4991427;28;20510;-94
2022/10/25 09:29:04;;;;;;;10.63;1.02;;;;;;;12.56;100.00;99301.72;4990774;28;20085;-93
2022/10/25 09:31:42;;;;;;;12.10;1.90;;;;;;;12.56;100.00;99304.38;4964890;28;20054;-92
2022/10/25 09:34:20;;;;;;;12.35;1.30;;;;;;;12.51;100.00;99299.63;4973703;28;20106;-94
2022/10/25 09:36:53;;;;;;;13.02;1.33;;;;;;;12.50;100.00;99301.44;4974228;28;20756;-93
2022/10/25 09:39:38;;;;;;;15.65;1.63;;;;;;;12.52;100.00;99299.44;4972312;28;20046;-92
2022/10/25 09:42:20;;;;;;;17.33;1.77;;;;;;;12.51;100.00;99299.63;4990844;28;20077;-93
2022/10/25 09:45:54;;;;;;;17.02;3.17;;;;;;;12.56;100.00;99307.84;4967393;28;20047;-92
2022/10/25 09:49:36;;;;;;;8.50;1.35;;;;;;;12.59;100.00;99298.69;4989795;28;20092;-92
2022/10/25 09:52:22;;;;;;;;;;;;;;;12.51;100.00;99286.38;5022476;28;20162;-92
2022/10/25 09:55:20;;;;;;;9.90;1.37;;;;;;;12.58;100.00;99279.31;4979909;28;19953;-91
2022/10/25 09:57:50;;;;;;;8.25;1.10;;;;;;;12.61;100.00;99286.09;5019153;28;20046;-93
2022/10/25 10:00:19;;;;;;;13.93;1.55;;;;;;;12.61;100.00;99273.63;5001611;28;20038;-91
2022/10/25 10:02:47;;;;;;;15.57;2.20;;;;;;;12.67;100.00;99284.50;4986920;28;20746;-92
2022/10/25 10:05:20;;;;;;;9.02;1.35;;;;;;;12.68;100.00;99279.03;4956925;28;20030;-92
2022/10/25 10:07:50;;;;;;;13.68;1.50;;;;;;;12.69;100.00;99278.03;5008708;28;20045;-92
2022/10/25 10:10:28;;;;;;;12.20;1.40;;;;;;;12.72;100.00;99282.13;4951207;28;20030;-91
2022/10/25 10:13:03;;;;;;;12.43;2.03;;;;;;;12.70;100.00;99278.84;4973609;28;20038;-91
2022/10/25 10:15:37;;;;;;;12.52;1.25;;;;;;;12.71;100.00;99273.34;5009466;28;20137;-94
2022/10/25 10:18:20;;;;;;;9.63;1.83;;;;;;;12.70;100.00;99277.00;4988492;28;20034;-91
2022/10/25 10:21:11;;;;;;;11.07;1.00;;;;;;;12.68;100.00;99263.13;4978213;28;20038;-94
2022/10/25 10:23:40;;;;;;;9.68;0.88;;;;;;;12.71;100.00;99254.78;4960704;28;20080;-92
2022/10/25 10:26:14;;;;;;;7.25;0.88;;;;;;;12.73;100.00;99262.56;4974219;28;20045;-92
2022/10/25 10:28:46;;;;;;;9.88;1.02;;;;;;;12.76;100.00;99257.69;4978552;28;20077;-93
2022/10/25 10:31:18;;;;;;;13.45;1.23;;;;;;;12.77;100.00;99259.34;4977387;28;20041;-93
2022/10/25 10:33:52;;;;;;;4.68;1.08;;;;;;;12.83;100.00;99262.25;5002905;28;20054;-92
2022/10/25 10:36:25;;;;;;;8.52;1.00;;;;;;;12.90;100.00;99266.59;4994216;28;20125;-93
2022/10/25 10:39:26;;;;;;;12.25;1.30;;;;;;;12.96;100.00;99267.69;4992118;28;20034;-92
2022/10/25 10:42:15;;;;;;;7.85;1.55;;;;;;;13.06;100.00;99267.38;4990932;28;20035;-92
2022/10/25 10:45:07;;;;;;;10.95;1.13;;;;;;;13.12;100.00;99266.59;5009160;28;20030;-93
2022/10/25 10:47:52;;;;;;;6.28;1.30;;;;;;;13.18;100.00;99264.22;4991907;28;20038;-93
2022/10/25 10:53:03;;;;;;;6.32;1.17;;;;;;;13.27;100.00;99271.84;4983635;28;20051;-92
2022/10/25 10:55:53;;;;;;;9.13;1.10;;;;;;;13.31;100.00;99269.63;4990032;28;20070;-92
2022/10/25 10:58:33;;;;;;;11.32;1.58;;;;;;;13.35;100.00;99262.09;5003883;28;20141;-92
2022/10/25 11:01:05;;;;;;;7.07;1.23;;;;;;;13.37;100.00;99260.91;4994704;28;20049;-92
2022/10/25 11:03:40;;;;;;;13.02;1.15;;;;;;;13.43;100.00;99259.31;4983197;28;20133;-91
2022/10/25 11:06:27;;;;;;;9.45;1.00;;;;;;;13.44;100.00;99257.47;4988014;28;20053;-92
2022/10/25 11:09:33;;;;;;;8.82;1.10;;;;;;;13.44;100.00;99252.97;4964621;28;20050;-92
2022/10/25 11:12:15;;;;;;;15.48;1.55;;;;;;;13.50;100.00;99252.25;4985689;28;20055;-93
2022/10/25 11:14:45;;;;;;;11.48;1.10;;;;;;;13.51;100.00;99247.75;4980963;28;20029;-93
2022/10/25 11:17:20;;;;;;;9.27;1.20;;;;;;;13.62;100.00;99241.09;4978863;28;20108;-91
2022/10/25 11:20:07;;;;;;;7.28;0.90;;;;;;;13.63;100.00;99242.75;4989188;28;20128;-91
2022/10/25 11:23:01;;;;;;;7.30;1.30;;;;;;;13.66;100.00;99229.06;4996582;28;20161;-94
2022/10/25 11:25:47;;;;;;;10.25;1.08;;;;;;;13.72;100.00;99230.13;4975419;28;20092;-93
2022/10/25 11:28:51;;;;;;;11.27;1.25;;;;;;;13.79;100.00;99230.16;5007644;28;20030;-90
2022/10/25 11:31:36;;;;;;;11.80;1.13;;;;;;;13.78;100.00;99229.34;4971076;28;20152;-92
2022/10/25 11:34:26;;;;;;;6.00;0.95;;;;;;;13.74;100.00;99226.25;5001274;28;20050;-91
2022/10/25 11:37:06;;;;;;;10.25;1.23;;;;;;;13.76;100.00;99218.13;5006607;28;20046;-91
2022/10/25 11:39:41;;;;;;;10.13;1.35;;;;;;;13.76;100.00;99220.78;4985166;28;20397;-92
2022/10/25 11:42:27;;;;;;;9.63;1.23;;;;;;;13.73;100.00;99223.78;4987228;28;20031;-93
2022/10/25 11:45:24;;;;;;;10.95;0.93;;;;;;;13.72;100.00;99223.00;4973272;28;20046;-92
2022/10/25 11:48:02;;;;;;;12.63;1.10;;;;;;;13.75;100.00;99211.97;4975662;28;20035;-93
2022/10/25 11:51:11;;;;;;;5.18;0.82;;;;;;;13.81;100.00;99204.25;4978736;28;20043;-90
2022/10/25 11:54:04;;;;;;;12.50;1.15;;;;;;;13.88;100.00;99213.06;4967874;28;20050;-91
2022/10/25 11:57:00;;;;;;;13.77;1.45;;;;;;;13.94;100.00;99212.28;4980371;28;20053;-92
2022/10/25 11:59:38;;;;;;;10.75;1.20;;;;;;;13.98;100.00;99202.06;4994542;28;20049;-93
2022/10/25 12:02:40;;;;;;;7.78;1.40;;;;;;;13.99;100.00;99199.22;4959312;28;20038;-94
2022/10/25 12:05:15;;;;;;;10.95;1.00;;;;;;;13.99;100.00;99195.72;5006339;28;20537;-91
2022/10/25 12:08:02;;;;;;;7.00;1.08;;;;;;;13.95;100.00;99186.53;4988387;28;20471;-94
2022/10/25 12:10:46;;;;;;;8.43;1.10;;;;;;;13.87;100.00;99192.84;4994472;28;20069;-92
2022/10/25 12:13:27;;;;;;;4.18;0.55;;;;;;;13.83;100.00;99186.25;4980767;28;20117;-91
2022/10/25 12:16:04;;;;;;;8.25;0.65;;;;;;;13.76;100.00;99178.28;4990090;28;20085;-91